createdAt,value
2019-01-18T00:01:11.153Z,4.90
2019-01-18T00:03:38.370Z,4.47
2019-01-18T00:06:05.330Z,5.23
2019-01-18T00:08:32.118Z,4.63
2019-01-18T00:10:58.969Z,5.23
2019-01-18T00:13:25.977Z,4.70
2019-01-18T00:15:52.974Z,5.33
2019-01-18T00:18:19.827Z,4.20
2019-01-18T00:20:46.688Z,4.53
2019-01-18T00:23:13.440Z,5.43
2019-01-18T00:25:40.306Z,5.47
2019-01-18T00:28:07.073Z,6.00
2019-01-18T00:30:33.945Z,4.93
2019-01-18T00:33:00.704Z,4.23
2019-01-18T00:35:27.477Z,5.07
2019-01-18T00:37:54.418Z,4.00
2019-01-18T00:40:21.552Z,3.90
2019-01-18T00:42:48.412Z,4.23
2019-01-18T00:45:15.558Z,4.00
2019-01-18T00:47:42.338Z,6.33
2019-01-18T00:50:11.225Z,3.70
2019-01-18T00:52:38.479Z,4.80
2019-01-18T00:55:05.917Z,5.30
2019-01-18T00:57:32.755Z,4.10
2019-01-18T00:59:59.745Z,4.00
2019-01-18T01:02:26.713Z,4.07
2019-01-18T01:04:53.454Z,4.03
2019-01-18T01:07:20.226Z,5.10
2019-01-18T01:09:47.114Z,5.70
2019-01-18T01:12:14.397Z,3.97
2019-01-18T01:14:41.596Z,4.73
2019-01-18T01:17:09.088Z,3.87
2019-01-18T01:19:35.945Z,5.00
2019-01-18T01:22:03.372Z,6.47
2019-01-18T01:24:30.517Z,5.50
2019-01-18T01:26:57.379Z,4.43
2019-01-18T01:29:24.160Z,5.67
2019-01-18T01:31:51.121Z,5.10
2019-01-18T01:34:18.110Z,5.20
2019-01-18T01:36:45.096Z,6.23
2019-01-18T01:39:12.032Z,5.30
2019-01-18T01:41:38.820Z,5.07
2019-01-18T01:44:05.658Z,4.13
2019-01-18T01:46:32.753Z,4.47
2019-01-18T01:48:59.517Z,4.17
2019-01-18T01:51:26.271Z,4.73
2019-01-18T01:53:53.189Z,4.47
2019-01-18T01:56:19.920Z,8.83
2019-01-18T01:58:46.702Z,3.97
2019-01-18T02:01:13.524Z,4.27
2019-01-18T02:03:40.268Z,4.80
2019-01-18T02:06:07.143Z,4.97
2019-01-18T02:08:33.900Z,4.53
2019-01-18T02:11:00.906Z,5.70
2019-01-18T02:13:27.801Z,4.80
2019-01-18T02:15:54.859Z,4.90
2019-01-18T02:18:22.909Z,3.20
2019-01-18T02:20:49.652Z,5.57
2019-01-18T02:23:16.869Z,4.73
2019-01-18T02:25:43.620Z,4.03
2019-01-18T02:28:10.673Z,6.43
2019-01-18T02:30:37.565Z,5.00
2019-01-18T02:33:04.321Z,5.93
2019-01-18T02:35:31.268Z,6.67
2019-01-18T02:37:58.243Z,4.70
2019-01-18T02:40:25.120Z,5.30
2019-01-18T02:42:52.075Z,4.90
2019-01-18T02:45:21.040Z,4.73
2019-01-18T02:47:47.977Z,5.27
2019-01-18T02:50:14.946Z,5.03
2019-01-18T02:52:41.970Z,4.90
2019-01-18T02:55:09.336Z,5.53
2019-01-18T02:57:36.350Z,5.07
2019-01-18T03:00:06.792Z,4.03
2019-01-18T03:02:33.922Z,5.73
2019-01-18T03:05:01.021Z,5.47
2019-01-18T03:07:27.917Z,5.57
2019-01-18T03:09:54.689Z,6.07
2019-01-18T03:12:21.671Z,4.17
2019-01-18T03:14:48.764Z,4.83
2019-01-18T03:17:15.844Z,4.37
2019-01-18T03:19:42.679Z,5.93
2019-01-18T03:22:09.529Z,4.20
2019-01-18T03:24:36.376Z,4.37
2019-01-18T03:27:03.225Z,4.63
2019-01-18T03:29:29.965Z,3.53
2019-01-18T03:31:56.849Z,5.27
2019-01-18T03:34:23.784Z,7.53
2019-01-18T03:36:50.891Z,3.43
2019-01-18T03:39:17.622Z,3.40
2019-01-18T03:41:44.368Z,3.93
2019-01-18T03:44:11.241Z,4.17
2019-01-18T03:46:38.119Z,3.47
2019-01-18T03:49:05.186Z,4.23
2019-01-18T03:51:32.096Z,5.17
2019-01-18T03:53:59.380Z,3.00
2019-01-18T03:56:26.268Z,4.17
2019-01-18T03:58:53.028Z,5.80
2019-01-18T04:01:19.801Z,3.63
2019-01-18T04:03:46.536Z,3.17
2019-01-18T04:06:13.288Z,3.43
2019-01-18T04:08:40.026Z,2.60
2019-01-18T04:11:06.905Z,5.40
2019-01-18T04:13:33.792Z,3.20
2019-01-18T04:16:00.638Z,6.07
2019-01-18T04:18:27.420Z,4.10
2019-01-18T04:20:54.169Z,4.57
2019-01-18T04:23:21.064Z,4.37
2019-01-18T04:25:47.999Z,3.30
2019-01-18T04:28:14.777Z,2.97
2019-01-18T04:30:41.540Z,3.83
2019-01-18T04:33:08.526Z,4.27
2019-01-18T04:35:35.248Z,4.97
2019-01-18T04:38:02.002Z,4.03
2019-01-18T04:40:28.877Z,4.37
2019-01-18T04:42:56.001Z,3.57
2019-01-18T04:45:23.185Z,4.20
2019-01-18T04:47:50.173Z,5.80
2019-01-18T04:50:18.878Z,5.53
2019-01-18T04:52:45.636Z,7.00
2019-01-18T04:55:12.567Z,4.37
2019-01-18T04:57:39.435Z,4.37
2019-01-18T05:00:10.338Z,4.73
2019-01-18T05:02:37.078Z,3.17
2019-01-18T05:05:04.761Z,4.13
2019-01-18T05:07:32.328Z,3.43
2019-01-18T05:09:59.611Z,4.37
2019-01-18T05:12:26.353Z,2.93
2019-01-18T05:14:53.273Z,3.70
2019-01-18T05:17:20.014Z,4.87
2019-01-18T05:19:46.783Z,4.03
2019-01-18T05:22:13.998Z,3.70
2019-01-18T05:24:40.845Z,4.13
2019-01-18T05:27:18.104Z,5.27
2019-01-18T05:34:08.957Z,5.13
2019-01-18T05:36:35.701Z,4.90
2019-01-18T05:39:05.165Z,3.50
2019-01-18T05:41:31.908Z,4.97
2019-01-18T05:43:58.884Z,3.80
2019-01-18T05:46:25.891Z,4.80
2019-01-18T05:48:52.978Z,5.77
2019-01-18T05:51:20.011Z,4.67
2019-01-18T05:53:47.048Z,6.20
2019-01-18T05:56:14.525Z,4.30
2019-01-18T05:58:41.398Z,4.03
2019-01-18T06:01:10.362Z,5.87
2019-01-18T06:03:37.132Z,4.67
2019-01-18T06:06:04.519Z,4.40
2019-01-18T06:08:31.257Z,5.23
2019-01-18T06:10:58.005Z,6.27
2019-01-18T06:13:24.742Z,6.00
2019-01-18T06:15:51.645Z,5.23
2019-01-18T06:18:18.633Z,4.13
2019-01-18T06:20:45.424Z,5.67
2019-01-18T06:23:12.431Z,5.77
2019-01-18T06:25:39.164Z,4.90
2019-01-18T06:28:05.909Z,5.10
2019-01-18T06:30:32.767Z,4.93
2019-01-18T06:32:59.889Z,6.43
2019-01-18T06:35:26.970Z,4.53
2019-01-18T06:37:53.720Z,5.13
2019-01-18T06:40:20.924Z,6.53
2019-01-18T06:42:47.911Z,6.43
2019-01-18T06:45:16.160Z,4.03
2019-01-18T06:47:42.912Z,7.37
2019-01-18T06:50:11.731Z,6.30
2019-01-18T06:52:38.813Z,8.27
2019-01-18T06:55:06.577Z,5.57
2019-01-18T06:57:33.348Z,7.60
2019-01-18T07:00:00.259Z,6.13
2019-01-18T07:02:27.141Z,7.67
2019-01-18T07:04:53.869Z,4.47
2019-01-18T07:07:20.612Z,6.40
2019-01-18T07:09:47.379Z,7.50
2019-01-18T07:12:14.230Z,5.27
2019-01-18T07:14:41.090Z,5.13
2019-01-18T07:17:08.123Z,5.60
2019-01-18T07:19:34.972Z,5.23
2019-01-18T07:22:02.029Z,5.50
2019-01-18T07:24:28.980Z,6.50
2019-01-18T07:26:55.993Z,4.40
2019-01-18T07:29:22.740Z,5.00
2019-01-18T07:31:49.606Z,4.70
2019-01-18T07:34:16.390Z,8.50
2019-01-18T07:36:43.440Z,5.40
2019-01-18T07:39:10.195Z,5.83
2019-01-18T07:41:37.046Z,8.03
2019-01-18T07:44:04.229Z,7.03
2019-01-18T07:46:31.492Z,5.50
2019-01-18T07:48:58.348Z,5.13
2019-01-18T07:51:25.202Z,6.30
2019-01-18T07:53:51.996Z,5.93
2019-01-18T07:56:18.746Z,4.83
2019-01-18T07:58:45.508Z,6.10
2019-01-18T08:01:12.375Z,6.63
2019-01-18T08:03:39.105Z,3.23
2019-01-18T08:06:06.076Z,2.87
2019-01-18T08:08:32.824Z,11.03
2019-01-18T08:10:59.586Z,4.47
2019-01-18T08:13:26.340Z,4.43
2019-01-18T08:15:53.286Z,3.60
2019-01-18T08:18:20.177Z,3.97
2019-01-18T08:20:46.932Z,4.80
2019-01-18T08:23:14.015Z,3.40
2019-01-18T08:25:40.970Z,4.40
2019-01-18T08:28:07.977Z,5.93
2019-01-18T08:30:34.852Z,3.53
2019-01-18T08:33:01.708Z,5.30
2019-01-18T08:35:29.426Z,7.77
2019-01-18T08:37:56.438Z,6.47
2019-01-18T08:40:31.454Z,7.53
2019-01-18T08:42:58.524Z,4.77
2019-01-18T08:45:28.290Z,7.00
2019-01-18T08:47:55.295Z,5.07
2019-01-18T08:50:22.308Z,5.73
2019-01-18T08:52:49.184Z,7.93
2019-01-18T08:55:16.113Z,4.63
2019-01-18T08:57:42.978Z,4.07
2019-01-18T09:00:12.905Z,5.37
2019-01-18T09:02:39.924Z,4.07
2019-01-18T09:05:09.469Z,4.80
2019-01-18T09:07:36.346Z,5.63
2019-01-18T09:10:04.386Z,5.20
2019-01-18T09:12:31.261Z,5.87
2019-01-18T09:14:58.255Z,4.10
2019-01-18T09:17:25.108Z,5.77
2019-01-18T09:19:51.949Z,6.13
2019-01-18T09:22:18.828Z,3.93
2019-01-18T09:24:45.829Z,5.37
2019-01-18T09:27:12.803Z,4.97
2019-01-18T09:29:39.544Z,5.47
2019-01-18T09:32:06.396Z,6.10
2019-01-18T09:34:33.547Z,3.05
2019-01-18T09:37:00.404Z,2.77
2019-01-18T09:39:27.248Z,3.95
2019-01-18T09:41:54.040Z,4.45
2019-01-18T09:44:21.129Z,3.17
2019-01-18T09:46:48.128Z,2.98
2019-01-18T09:49:14.905Z,5.53
2019-01-18T09:51:42.005Z,4.85
2019-01-18T09:54:08.970Z,3.12
2019-01-18T09:56:36.678Z,4.20
2019-01-18T09:59:03.644Z,4.33
2019-01-18T10:01:30.513Z,4.03
2019-01-18T10:03:57.513Z,3.77
2019-01-18T10:06:24.368Z,3.60
2019-01-18T10:08:51.250Z,4.63
2019-01-18T10:11:18.504Z,4.23
2019-01-18T10:13:45.315Z,3.43
2019-01-18T10:16:12.221Z,4.17
2019-01-18T10:18:39.083Z,4.30
2019-01-18T10:21:06.052Z,5.50
2019-01-18T10:23:32.915Z,3.20
2019-01-18T10:25:59.668Z,4.50
2019-01-18T10:28:26.656Z,4.37
2019-01-18T10:30:53.522Z,3.47
2019-01-18T10:33:20.263Z,3.65
2019-01-18T10:35:47.092Z,2.55
2019-01-18T10:38:13.853Z,3.12
2019-01-18T10:40:40.713Z,4.33
2019-01-18T10:43:07.572Z,3.10
2019-01-18T10:45:34.532Z,3.33
2019-01-18T10:48:01.266Z,6.60
2019-01-18T10:50:30.344Z,3.37
2019-01-18T10:52:57.397Z,4.27
2019-01-18T10:55:24.352Z,2.90
2019-01-18T10:57:51.300Z,3.83
2019-01-18T11:00:21.364Z,4.33
2019-01-18T11:02:49.213Z,4.10
2019-01-18T11:05:16.305Z,5.27
2019-01-18T11:07:43.247Z,3.77
2019-01-18T11:10:10.300Z,3.50
2019-01-18T11:12:37.249Z,3.93
2019-01-18T11:15:06.083Z,3.27
2019-01-18T11:17:32.956Z,4.20
2019-01-18T11:19:59.696Z,2.60
2019-01-18T11:22:26.729Z,3.00
2019-01-18T11:24:53.740Z,2.67
2019-01-18T11:27:20.501Z,2.37
2019-01-18T11:29:47.287Z,3.17
2019-01-18T11:32:14.146Z,4.20
2019-01-18T11:34:41.111Z,4.77
2019-01-18T11:37:08.125Z,3.90
2019-01-18T11:39:34.965Z,4.37
2019-01-18T11:42:05.340Z,3.30
2019-01-18T11:44:30.661Z,3.43
2019-01-18T11:46:57.404Z,3.07
2019-01-18T11:49:24.143Z,3.57
2019-01-18T11:51:51.041Z,3.97
2019-01-18T11:54:17.765Z,3.07
2019-01-18T11:56:44.629Z,4.03
2019-01-18T11:59:11.354Z,4.13
2019-01-18T12:04:26.742Z,2.57
2019-01-18T12:07:05.977Z,4.07
2019-01-18T12:09:46.405Z,3.70
2019-01-18T12:12:26.497Z,2.60
2019-01-18T12:15:06.568Z,3.40
2019-01-18T12:17:46.274Z,3.87
2019-01-18T12:20:26.321Z,2.60
2019-01-18T12:23:11.050Z,3.00
2019-01-18T12:25:50.645Z,3.83
2019-01-18T12:28:29.892Z,2.63
2019-01-18T12:30:56.665Z,3.20
2019-01-18T12:33:43.357Z,3.10
2019-01-18T12:36:29.872Z,3.83
2019-01-18T12:39:16.517Z,4.83
2019-01-18T12:42:03.174Z,3.03
2019-01-18T12:44:49.899Z,3.00
2019-01-18T12:47:36.397Z,4.10
2019-01-18T12:50:24.217Z,3.93
2019-01-18T12:53:10.734Z,3.87
2019-01-18T12:55:57.108Z,5.30
2019-01-18T12:58:43.637Z,3.17
2019-01-18T13:01:30.049Z,3.20
2019-01-18T13:04:16.585Z,6.30
2019-01-18T13:07:03.345Z,4.57
2019-01-18T13:09:49.886Z,3.17
2019-01-18T13:12:36.441Z,4.47
2019-01-18T13:15:42.511Z,4.30
2019-01-18T13:18:29.072Z,3.70
2019-01-18T13:21:09.664Z,2.80
2019-01-18T13:23:49.154Z,2.67
2019-01-18T13:26:28.512Z,4.33
2019-01-18T13:29:07.876Z,3.90
2019-01-18T13:31:47.754Z,2.00
2019-01-18T13:34:27.841Z,3.63
2019-01-18T13:37:08.002Z,4.67
2019-01-18T13:39:47.259Z,2.00
2019-01-18T13:42:27.297Z,4.10
2019-01-18T13:45:07.286Z,4.13
2019-01-18T13:47:47.658Z,3.43
2019-01-18T13:50:27.374Z,2.50
2019-01-18T13:53:07.424Z,2.60
2019-01-18T13:55:47.457Z,6.90
2019-01-18T13:58:27.501Z,3.47
2019-01-18T14:01:07.474Z,2.42
2019-01-18T14:03:46.668Z,4.72
2019-01-18T14:12:23.921Z,4.17
2019-01-18T14:15:03.418Z,3.50
2019-01-18T14:17:43.317Z,15.48
2019-01-18T14:20:23.370Z,13.48
2019-01-18T14:23:03.414Z,10.23
2019-01-18T14:25:42.681Z,10.25
2019-01-18T14:28:22.766Z,11.57
2019-01-18T14:31:02.681Z,14.43
2019-01-18T14:33:42.989Z,62.78
2019-01-18T14:36:22.894Z,49.83
2019-01-18T14:39:04.449Z,19.25
2019-01-18T14:41:44.601Z,5.90
2019-01-18T14:44:24.651Z,8.75
2019-01-18T14:47:04.801Z,4.30
2019-01-18T14:49:44.968Z,4.65
2019-01-18T14:52:12.089Z,3.47
2019-01-18T14:54:58.558Z,2.83
2019-01-18T14:57:45.057Z,3.87
2019-01-18T15:00:54.698Z,3.40
2019-01-18T15:03:41.445Z,3.37
2019-01-18T15:06:28.037Z,3.50
2019-01-18T15:09:14.605Z,4.33
2019-01-18T15:12:01.256Z,3.67
2019-01-18T15:14:47.668Z,3.97
2019-01-18T15:17:34.646Z,4.13
2019-01-18T15:20:23.417Z,6.57
2019-01-18T15:23:10.216Z,4.87
2019-01-18T15:25:56.743Z,5.37
2019-01-18T15:28:43.250Z,21.27
2019-01-18T15:31:29.668Z,25.60
2019-01-18T15:34:16.275Z,6.33
2019-01-18T15:37:02.901Z,31.03
2019-01-18T15:39:49.409Z,14.40
2019-01-18T15:42:36.104Z,12.03
2019-01-18T15:45:22.594Z,9.70
2019-01-18T15:48:09.325Z,7.93
2019-01-18T15:50:56.069Z,11.87
2019-01-18T15:53:42.489Z,36.97
2019-01-18T15:56:28.977Z,24.50
2019-01-18T15:59:15.663Z,14.17
2019-01-18T16:02:02.419Z,6.83
2019-01-18T16:04:48.947Z,7.20
2019-01-18T16:07:15.754Z,8.87
2019-01-18T16:13:01.353Z,5.60
2019-01-18T16:16:07.769Z,6.17
2019-01-18T16:18:54.969Z,7.80
2019-01-18T16:21:34.480Z,6.67
2019-01-18T16:24:13.708Z,5.23
2019-01-18T16:26:53.909Z,6.70
2019-01-18T16:29:33.793Z,7.17
2019-01-18T16:32:13.599Z,7.87
2019-01-18T16:34:53.201Z,6.07
2019-01-18T16:37:33.020Z,8.17
2019-01-18T16:40:12.243Z,5.83
2019-01-18T16:42:52.351Z,6.80
2019-01-18T16:45:32.384Z,7.20
2019-01-18T16:48:12.898Z,7.07
2019-01-18T16:50:52.516Z,8.03
2019-01-18T16:53:32.785Z,6.37
2019-01-18T16:56:12.867Z,6.97
2019-01-18T16:58:53.008Z,7.90
2019-01-18T17:01:32.702Z,7.77
2019-01-18T17:04:12.518Z,9.10
2019-01-18T17:06:52.025Z,6.40
2019-01-18T17:09:32.067Z,7.27
2019-01-18T17:12:12.078Z,8.93
2019-01-18T17:14:52.213Z,9.90
2019-01-18T17:17:32.053Z,9.57
2019-01-18T17:20:12.176Z,12.37
2019-01-18T17:22:51.565Z,9.53
2019-01-18T17:25:31.632Z,8.57
2019-01-18T17:27:58.831Z,7.60
2019-01-18T17:30:45.241Z,7.87
2019-01-18T17:33:36.741Z,8.30
2019-01-18T17:36:40.227Z,8.87
2019-01-18T17:39:46.373Z,9.20
2019-01-18T17:48:55.018Z,9.27
2019-01-18T17:51:50.082Z,10.65
2019-01-18T17:54:56.477Z,11.97
2019-01-18T17:58:04.694Z,16.17
2019-01-18T18:01:10.473Z,15.47
2019-01-18T18:04:16.506Z,17.00
2019-01-18T18:07:08.291Z,16.50
2019-01-18T18:10:14.347Z,13.90
2019-01-18T18:13:20.489Z,11.33
2019-01-18T18:16:26.783Z,10.33
2019-01-18T18:19:32.818Z,7.20
2019-01-18T18:22:12.508Z,9.47
2019-01-18T18:24:52.722Z,8.57
2019-01-18T18:27:32.494Z,10.20
2019-01-18T18:30:12.907Z,9.47
2019-01-18T18:32:52.824Z,9.87
2019-01-18T18:35:33.027Z,40.17
2019-01-18T18:38:13.001Z,34.23
2019-01-18T18:40:52.685Z,12.23
2019-01-18T18:43:31.977Z,13.17
2019-01-18T18:46:11.301Z,14.83
2019-01-18T18:48:50.828Z,12.30
2019-01-18T18:51:46.908Z,16.47
2019-01-18T18:54:52.968Z,12.10
2019-01-18T18:57:59.136Z,11.63
2019-01-18T19:01:05.296Z,12.33
2019-01-18T19:04:12.013Z,11.67
2019-01-18T19:07:18.350Z,12.50
2019-01-18T19:10:24.525Z,15.50
2019-01-18T19:13:30.695Z,12.57
2019-01-18T19:16:36.836Z,15.73
2019-01-18T19:19:43.307Z,13.53
2019-01-18T19:22:23.174Z,14.67
2019-01-18T19:25:03.518Z,16.10
2019-01-18T19:27:43.585Z,15.97
2019-01-18T19:30:23.377Z,15.93
2019-01-18T19:33:03.161Z,15.60
2019-01-18T19:35:43.314Z,17.27
2019-01-18T19:38:23.556Z,16.50
2019-01-18T19:41:03.853Z,18.03
2019-01-18T19:43:43.442Z,16.27
2019-01-18T19:46:23.041Z,13.83
2019-01-18T19:49:03.343Z,12.50
2019-01-18T19:51:43.267Z,15.60
2019-01-18T19:54:23.475Z,16.40
2019-01-18T19:57:03.561Z,15.57
2019-01-18T19:59:43.497Z,14.77
2019-01-18T20:02:23.018Z,17.53
2019-01-18T20:05:02.975Z,16.00
2019-01-18T20:10:55.333Z,16.47
2019-01-18T20:13:35.433Z,19.00
2019-01-18T20:16:15.689Z,22.37
2019-01-18T20:18:55.793Z,26.07
2019-01-18T20:21:35.650Z,19.00
2019-01-18T20:24:15.868Z,18.93
2019-01-18T20:26:55.713Z,18.43
2019-01-18T20:29:34.965Z,16.77
2019-01-18T20:32:14.961Z,14.13
2019-01-18T20:34:54.972Z,17.40
2019-01-18T20:37:35.160Z,18.60
2019-01-18T20:40:15.566Z,21.13
2019-01-18T20:42:55.849Z,20.60
2019-01-18T20:45:35.283Z,18.17
2019-01-18T20:48:15.758Z,16.60
2019-01-18T20:50:55.541Z,17.37
2019-01-18T20:53:35.789Z,21.53
2019-01-18T20:56:17.626Z,19.37
2019-01-18T20:58:57.747Z,19.20
2019-01-18T21:01:37.222Z,19.40
2019-01-18T21:04:16.854Z,50.93
2019-01-18T21:06:56.132Z,40.53
2019-01-18T21:09:36.409Z,25.40
2019-01-18T21:12:16.763Z,15.00
2019-01-18T21:14:56.729Z,15.23
2019-01-18T21:17:36.761Z,18.03
2019-01-18T21:20:16.810Z,18.37
2019-01-18T21:22:56.802Z,18.43
2019-01-18T21:25:36.804Z,15.23
2019-01-18T21:28:15.991Z,13.23
2019-01-18T21:30:55.997Z,17.30
2019-01-18T21:33:36.261Z,15.93
2019-01-18T21:36:16.057Z,15.00
2019-01-18T21:38:56.125Z,18.77
2019-01-18T21:41:36.497Z,18.97
2019-01-18T21:44:16.808Z,17.10
2019-01-18T21:46:56.566Z,20.50
2019-01-18T21:49:36.429Z,22.10
2019-01-18T21:52:16.060Z,20.17
2019-01-18T21:54:55.616Z,19.07
2019-01-18T21:57:35.622Z,20.20
2019-01-18T22:00:15.773Z,17.93
2019-01-18T22:02:55.836Z,19.00
2019-01-18T22:05:35.635Z,15.93
2019-01-18T22:08:15.731Z,17.97
2019-01-18T22:10:55.525Z,21.73
2019-01-18T22:13:35.589Z,18.20
2019-01-18T22:16:15.214Z,18.03
2019-01-18T22:18:54.941Z,16.93
2019-01-18T22:21:34.925Z,16.60
2019-01-18T22:24:15.034Z,19.73
2019-01-18T22:26:55.097Z,18.40
2019-01-18T22:29:35.177Z,23.60
2019-01-18T22:32:15.345Z,21.00
2019-01-18T22:34:55.171Z,13.57
2019-01-18T22:37:34.988Z,15.20
2019-01-18T22:40:15.083Z,16.20
2019-01-18T22:42:55.102Z,15.53
2019-01-18T22:45:35.302Z,13.40
2019-01-18T22:48:14.863Z,13.20
2019-01-18T22:50:55.032Z,16.10
2019-01-18T22:53:35.048Z,14.77
2019-01-18T22:56:14.531Z,13.70
2019-01-18T22:58:54.277Z,12.63
2019-01-18T23:01:34.662Z,12.03
2019-01-18T23:04:14.105Z,15.10
2019-01-18T23:06:55.778Z,14.40
2019-01-18T23:09:35.163Z,14.33
2019-01-18T23:12:14.374Z,14.27
2019-01-18T23:14:54.563Z,16.73
2019-01-18T23:17:34.625Z,14.93
2019-01-18T23:20:14.221Z,14.33
2019-01-18T23:22:54.463Z,17.57
2019-01-18T23:25:34.633Z,16.87
2019-01-18T23:28:13.842Z,24.40
2019-01-18T23:30:54.122Z,20.83
2019-01-18T23:33:34.268Z,15.50
2019-01-18T23:36:14.500Z,15.17
2019-01-18T23:38:54.530Z,13.10
2019-01-18T23:41:34.842Z,13.57
2019-01-18T23:44:14.538Z,16.10
2019-01-18T23:46:54.834Z,14.33
2019-01-18T23:49:34.738Z,16.17
2019-01-18T23:52:14.939Z,17.87
2019-01-18T23:54:55.004Z,15.13
2019-01-18T23:57:35.127Z,16.20
